Time;durP1;ratioP1;P1;durP2;ratioP2;P2;SDS_P1;SDS_P2;PMS_P1;PMS_P2;Temp;Humidity;BMP_temperature;BMP_pressure;BME280_temperature;BME280_humidity;BME280_pressure;Samples;Min_cycle;Max_cycle;Signal;HPM_P1;HPM_P2
2022/09/12 00:00:31;;;;;;;7.33;5.77;;;;;;;23.93;46.91;99822.91;4142616;28;20328;-64
2022/09/12 00:02:33;;;;;;;8.03;6.77;;;;;;;22.76;48.37;99852.03;4141208;28;20234;-65
2022/09/12 00:04:34;;;;;;;8.13;6.77;;;;;;;22.78;48.87;99820.94;4136760;28;20312;-64
2022/09/12 00:06:36;;;;;;;10.33;7.20;;;;;;;22.77;48.78;99819.28;4138741;28;20230;-64
2022/09/12 00:08:38;;;;;;;8.13;6.93;;;;;;;21.87;50.30;99833.97;4137616;28;20351;-64
2022/09/12 00:10:41;;;;;;;8.90;6.37;;;;;;;22.42;48.96;99822.03;4146343;28;20777;-64
2022/09/12 00:12:43;;;;;;;7.93;6.83;;;;;;;22.66;48.54;99798.47;4144108;28;20241;-63
2022/09/12 00:14:45;;;;;;;7.40;6.53;;;;;;;22.04;49.23;99823.28;4144521;28;20620;-63
2022/09/12 00:16:46;;;;;;;6.83;6.13;;;;;;;22.57;48.68;99816.13;4144753;28;20880;-64
2022/09/12 00:18:48;;;;;;;8.70;7.40;;;;;;;22.39;48.59;99820.63;4145208;28;20236;-63
2022/09/12 00:20:50;;;;;;;7.37;6.60;;;;;;;22.79;48.21;99795.50;4147987;28;20284;-64
2022/09/12 00:22:51;;;;;;;7.37;6.63;;;;;;;23.12;47.53;99804.84;4139432;28;20312;-63
2022/09/12 00:24:53;;;;;;;7.77;6.97;;;;;;;23.09;48.03;99796.38;4143352;28;20297;-64
2022/09/12 00:26:54;;;;;;;7.70;6.90;;;;;;;22.91;48.08;99806.31;4145912;28;20866;-63
2022/09/12 00:28:56;;;;;;;7.07;6.37;;;;;;;22.51;49.01;99815.22;4148492;28;20205;-64
2022/09/12 00:30:58;;;;;;;7.17;5.87;;;;;;;23.20;47.71;99788.19;4143072;28;20233;-63
2022/09/12 00:33:00;;;;;;;7.53;5.80;;;;;;;23.25;47.67;99773.06;4146729;28;20607;-64
2022/09/12 00:35:02;;;;;;;7.20;5.60;;;;;;;22.74;48.01;99817.06;4143559;28;20315;-64
2022/09/12 00:37:04;;;;;;;9.13;6.23;;;;;;;23.42;46.95;99792.94;4146582;28;20240;-63
2022/09/12 00:39:06;;;;;;;6.53;5.07;;;;;;;23.20;47.47;99812.63;4142285;28;20237;-64
2022/09/12 00:41:29;;;;;;;8.90;5.70;;;;;;;23.10;47.87;99808.88;4144700;28;20241;-64
2022/09/12 00:43:40;;;;;;;6.40;5.80;;;;;;;23.89;46.35;99783.72;4145163;28;20335;-64
2022/09/12 00:45:42;;;;;;;6.73;6.03;;;;;;;23.74;46.50;99804.13;4141815;28;20239;-64
2022/09/12 00:47:43;;;;;;;7.60;5.60;;;;;;;23.51;46.71;99821.31;4147368;28;20287;-64
2022/09/12 00:49:53;;;;;;;6.87;5.70;;;;;;;23.13;47.26;99830.06;4144518;28;20802;-64
2022/09/12 00:52:32;;;;;;;7.53;6.17;;;;;;;24.42;45.27;99765.28;4138243;28;20251;-64
2022/09/12 00:54:42;;;;;;;6.83;6.10;;;;;;;24.25;45.34;99804.16;4136349;28;20724;-64
2022/09/12 00:56:46;;;;;;;7.27;6.47;;;;;;;23.45;46.37;99859.47;4140710;28;20229;-63
2022/09/12 00:59:04;;;;;;;8.57;5.63;;;;;;;23.18;47.02;99852.72;4140780;28;20340;-63
2022/09/12 01:01:05;;;;;;;5.80;5.20;;;;;;;22.55;48.24;99848.06;4141753;28;20237;-64
2022/09/12 01:03:13;;;;;;;6.80;5.80;;;;;;;24.10;45.95;99782.97;4139969;28;20241;-64
2022/09/12 01:05:16;;;;;;;8.97;6.30;;;;;;;24.36;45.06;99796.16;4141371;28;20323;-64
2022/09/12 01:07:18;;;;;;;9.13;6.93;;;;;;;24.53;44.46;99805.13;4143945;28;20735;-63
2022/09/12 01:09:22;;;;;;;8.80;6.83;;;;;;;24.16;45.30;99831.94;4141974;28;20237;-64
2022/09/12 01:11:24;;;;;;;9.37;7.13;;;;;;;24.27;45.22;99826.47;4145785;28;20239;-64
2022/09/12 01:13:26;;;;;;;11.60;7.10;;;;;;;24.15;45.13;99827.59;4143089;28;20242;-64
2022/09/12 01:15:30;;;;;;;8.97;7.97;;;;;;;23.84;46.47;99833.34;4140881;28;20290;-64
2022/09/12 01:18:16;;;;;;;8.00;6.70;;;;;;;23.60;46.65;99834.53;4146067;28;20264;-64
2022/09/12 01:20:46;;;;;;;10.10;7.70;;;;;;;24.13;45.46;99804.22;4145205;28;20324;-64
2022/09/12 01:23:04;;;;;;;8.90;7.77;;;;;;;22.44;47.66;99877.63;4130976;28;20367;-63
2022/09/12 01:25:30;;;;;;;11.00;7.87;;;;;;;22.84;47.66;99824.56;4139181;28;20237;-64
2022/09/12 01:28:09;;;;;;;9.27;7.83;;;;;;;22.94;47.56;99811.25;4145437;28;20247;-64
2022/09/12 01:30:20;;;;;;;10.83;7.90;;;;;;;23.45;46.83;99781.63;4143599;28;20227;-63
2022/09/12 01:32:43;;;;;;;8.40;7.40;;;;;;;22.97;47.44;99802.66;4144813;28;20235;-64
2022/09/12 01:35:00;;;;;;;9.93;7.43;;;;;;;23.25;47.00;99789.34;4135829;28;20252;-64
2022/09/12 01:37:20;;;;;;;10.77;7.67;;;;;;;21.75;49.57;99824.97;4142033;28;20260;-63
2022/09/12 01:39:54;;;;;;;9.10;7.23;;;;;;;22.71;48.06;99773.34;4142399;28;20232;-63
2022/09/12 01:42:30;;;;;;;8.70;7.80;;;;;;;22.83;47.65;99776.88;4143613;28;20239;-64
2022/09/12 01:44:41;;;;;;;10.33;8.40;;;;;;;22.04;49.32;99793.50;4144704;28;20231;-63
2022/09/12 01:46:51;;;;;;;9.77;8.20;;;;;;;22.25;48.74;99794.78;4144802;28;20240;-63
2022/09/12 01:49:15;;;;;;;9.93;8.30;;;;;;;22.91;47.45;99767.50;4133643;28;20696;-63
2022/09/12 01:51:29;;;;;;;8.50;7.53;;;;;;;22.27;48.41;99806.22;4145017;28;20272;-63
2022/09/12 01:53:42;;;;;;;8.17;7.37;;;;;;;22.93;47.21;99762.69;4140842;28;20225;-63
2022/09/12 01:55:50;;;;;;;9.30;8.37;;;;;;;22.35;47.93;99805.88;4141316;28;20325;-64
2022/09/12 01:58:12;;;;;;;10.20;8.27;;;;;;;22.53;47.84;99777.84;4142843;28;20233;-64
2022/09/12 02:00:15;;;;;;;10.17;7.97;;;;;;;22.32;48.07;99792.84;4142828;28;20635;-64
2022/09/12 02:02:25;;;;;;;9.50;8.27;;;;;;;21.43;49.60;99817.09;4147045;28;20674;-64
2022/09/12 02:04:51;;;;;;;9.73;8.47;;;;;;;22.48;47.68;99757.97;4142279;28;20233;-64
2022/09/12 02:06:53;;;;;;;9.17;8.10;;;;;;;21.58;48.65;99813.94;4143696;28;20240;-63
2022/09/12 02:09:01;;;;;;;9.60;8.23;;;;;;;22.12;48.47;99773.38;4144049;28;20205;-63
2022/09/12 02:11:08;;;;;;;11.03;8.20;;;;;;;21.82;49.02;99780.53;4141598;28;20232;-63
2022/09/12 02:13:22;;;;;;;14.10;9.30;;;;;;;19.83;52.45;99820.34;4139571;28;20717;-64
2022/09/12 02:15:37;;;;;;;13.93;9.40;;;;;;;20.06;52.08;99787.38;4144520;28;20225;-63
2022/09/12 02:17:42;;;;;;;11.27;9.70;;;;;;;19.85;53.04;99766.16;4142433;28;20323;-63
2022/09/12 02:19:56;;;;;;;10.67;9.10;;;;;;;20.80;51.50;99722.63;4141350;28;20240;-63
2022/09/12 02:22:00;;;;;;;12.03;9.53;;;;;;;21.05;50.61;99721.69;4142009;28;20236;-64
2022/09/12 02:24:07;;;;;;;11.10;9.90;;;;;;;21.47;49.75;99742.53;4138408;28;20807;-63
2022/09/12 02:26:20;;;;;;;16.70;9.80;;;;;;;21.41;49.83;99732.63;4142591;28;20235;-64
2022/09/12 02:28:33;;;;;;;10.07;9.07;;;;;;;21.36;49.82;99742.28;4143696;28;20229;-63
2022/09/12 02:30:42;;;;;;;10.80;9.70;;;;;;;21.51;49.64;99732.91;4143187;28;20229;-64
2022/09/12 02:32:46;;;;;;;15.37;10.13;;;;;;;21.16;50.22;99745.25;4139926;28;20271;-63
2022/09/12 02:35:07;;;;;;;13.60;9.73;;;;;;;21.32;50.44;99707.81;4137161;28;20239;-64
2022/09/12 02:37:18;;;;;;;12.83;10.40;;;;;;;21.32;50.25;99719.44;4144298;28;20455;-64
2022/09/12 02:39:20;;;;;;;11.50;10.30;;;;;;;21.41;49.90;99733.47;4143215;28;20261;-64
2022/09/12 02:41:22;;;;;;;11.83;10.33;;;;;;;21.23;49.95;99753.28;4140532;28;20241;-64
2022/09/12 02:43:23;;;;;;;15.17;10.90;;;;;;;21.04;50.83;99747.09;4139270;28;20237;-64
2022/09/12 02:45:25;;;;;;;12.00;10.80;;;;;;;21.18;50.61;99723.41;4141862;28;20229;-64
2022/09/12 02:47:33;;;;;;;11.43;10.33;;;;;;;21.43;50.02;99714.31;4141018;28;20261;-63
2022/09/12 02:49:34;;;;;;;14.33;10.67;;;;;;;21.08;50.45;99745.56;4143089;28;20874;-64
2022/09/12 02:51:37;;;;;;;15.57;10.33;;;;;;;21.02;50.70;99749.19;4142500;28;20332;-64
2022/09/12 02:53:39;;;;;;;11.17;10.03;;;;;;;20.65;51.25;99749.22;4140993;28;20233;-64
2022/09/12 02:55:42;;;;;;;12.00;10.70;;;;;;;21.11;50.56;99709.16;4144182;28;20237;-64
2022/09/12 02:57:43;;;;;;;12.73;11.43;;;;;;;21.00;50.85;99737.78;4136212;28;20242;-64
2022/09/12 02:59:46;;;;;;;12.37;11.03;;;;;;;21.20;49.95;99737.50;4145554;28;20648;-64
2022/09/12 03:02:10;;;;;;;11.63;10.43;;;;;;;21.28;50.06;99730.97;4144133;28;20248;-64
2022/09/12 03:04:42;;;;;;;12.90;10.73;;;;;;;21.29;49.82;99741.56;4143324;28;20316;-63
2022/09/12 03:06:56;;;;;;;11.80;10.60;;;;;;;21.01;50.38;99750.25;4159375;28;20319;-64
2022/09/12 03:09:27;;;;;;;12.13;10.93;;;;;;;20.99;50.31;99757.78;4156992;28;20759;-64
2022/09/12 03:11:59;;;;;;;12.27;10.23;;;;;;;20.59;51.09;99779.84;4158994;28;20220;-64
2022/09/12 03:14:26;;;;;;;11.80;10.30;;;;;;;20.86;50.70;99752.50;4160694;28;20237;-64
2022/09/12 03:17:00;;;;;;;16.37;11.50;;;;;;;21.09;49.90;99732.88;4160165;28;20312;-63
2022/09/12 03:19:18;;;;;;;12.13;10.50;;;;;;;21.64;49.04;99719.19;4160229;28;20420;-64
2022/09/12 03:21:29;;;;;;;12.67;10.57;;;;;;;21.49;49.04;99760.16;4159109;28;20659;-64
2022/09/12 03:23:31;;;;;;;12.97;11.07;;;;;;;21.12;49.67;99798.16;4158800;28;20330;-65
2022/09/12 03:25:43;;;;;;;14.53;10.83;;;;;;;21.65;49.00;99752.50;4158599;28;20229;-64
2022/09/12 03:28:19;;;;;;;15.60;10.70;;;;;;;21.37;49.56;99756.63;4157433;28;20239;-63
2022/09/12 03:30:21;;;;;;;11.83;10.60;;;;;;;22.14;47.96;99736.06;4158936;28;20678;-64
2022/09/12 03:32:47;;;;;;;11.27;10.07;;;;;;;22.18;48.14;99732.63;4159093;28;20242;-63
2022/09/12 03:34:49;;;;;;;12.20;10.20;;;;;;;22.49;46.89;99751.47;4154421;28;20239;-67
2022/09/12 03:36:54;;;;;;;12.17;10.87;;;;;;;22.26;47.49;99772.09;4159245;28;20207;-66
2022/09/12 03:38:55;;;;;;;11.63;10.43;;;;;;;22.38;47.50;99759.38;4157102;28;20258;-64
2022/09/12 03:40:57;;;;;;;11.80;10.57;;;;;;;22.47;47.40;99743.56;4159753;28;21048;-63
2022/09/12 03:42:59;;;;;;;11.57;10.37;;;;;;;22.27;47.47;99781.84;4159928;28;20239;-64
2022/09/12 03:45:00;;;;;;;11.90;10.70;;;;;;;21.39;49.04;99819.41;4159060;28;20205;-64
2022/09/12 03:47:02;;;;;;;14.80;11.10;;;;;;;21.92;48.31;99780.78;4163170;28;20327;-64
2022/09/12 03:49:09;;;;;;;12.77;10.80;;;;;;;21.11;49.45;99820.00;4161164;28;20740;-63
2022/09/12 03:51:11;;;;;;;14.47;11.23;;;;;;;21.58;48.75;99793.16;4161780;28;20241;-64
2022/09/12 03:53:12;;;;;;;12.97;11.63;;;;;;;22.15;47.80;99754.75;4157629;28;20278;-63
2022/09/12 03:55:18;;;;;;;13.63;11.40;;;;;;;21.80;48.42;99781.81;4160603;28;20668;-64
2022/09/12 03:57:19;;;;;;;15.80;12.00;;;;;;;21.25;49.18;99809.84;4164306;28;20304;-64
2022/09/12 03:59:21;;;;;;;15.20;11.63;;;;;;;21.43;48.83;99800.88;4160972;28;20236;-63
2022/09/12 04:01:23;;;;;;;13.37;11.80;;;;;;;21.11;49.38;99807.31;4158274;28;20229;-64
2022/09/12 04:03:24;;;;;;;14.10;12.60;;;;;;;21.01;50.03;99779.19;4160364;28;20706;-63
2022/09/12 04:05:26;;;;;;;14.50;12.60;;;;;;;21.61;48.95;99752.09;4163853;28;20280;-64
2022/09/12 04:07:28;;;;;;;12.83;11.43;;;;;;;21.94;48.24;99752.66;4160098;28;20232;-63
2022/09/12 04:09:29;;;;;;;13.57;11.63;;;;;;;21.77;47.97;99780.41;4164272;28;20236;-63
2022/09/12 04:11:31;;;;;;;13.03;11.63;;;;;;;20.90;49.36;99813.97;4163717;28;20243;-64
2022/09/12 04:13:34;;;;;;;12.83;11.47;;;;;;;21.61;48.56;99757.50;4167713;28;20243;-64
2022/09/12 04:15:36;;;;;;;13.83;11.47;;;;;;;21.21;49.16;99795.13;4154029;28;20236;-64
2022/09/12 04:17:37;;;;;;;13.83;12.20;;;;;;;22.19;47.35;99725.34;4161500;28;20243;-63
2022/09/12 04:19:39;;;;;;;15.70;12.17;;;;;;;21.90;47.78;99757.72;4165264;28;20976;-64
2022/09/12 04:21:40;;;;;;;12.03;10.67;;;;;;;21.81;47.44;99772.63;4161945;28;20439;-64
2022/09/12 04:23:43;;;;;;;16.07;11.40;;;;;;;22.21;47.14;99748.41;4160779;28;20241;-63
2022/09/12 04:25:53;;;;;;;13.73;12.23;;;;;;;21.63;48.55;99768.97;4156242;28;20240;-63
2022/09/12 04:27:54;;;;;;;12.83;11.53;;;;;;;21.49;47.97;99802.63;4158412;28;20242;-64
2022/09/12 04:29:58;;;;;;;13.50;12.10;;;;;;;21.97;47.41;99753.00;4158043;28;20753;-63
2022/09/12 04:32:00;;;;;;;14.10;11.73;;;;;;;21.54;47.87;99789.25;4162408;28;20611;-64
2022/09/12 04:34:01;;;;;;;13.83;12.03;;;;;;;22.00;47.29;99752.53;4160998;28;20235;-64
2022/09/12 04:36:09;;;;;;;14.57;12.80;;;;;;;21.54;48.09;99784.69;4158038;28;20229;-64
2022/09/12 04:38:11;;;;;;;14.70;12.50;;;;;;;21.35;47.89;99805.53;4158769;28;20337;-64
2022/09/12 04:40:12;;;;;;;13.97;11.90;;;;;;;21.31;47.96;99798.13;4162637;28;20646;-64
2022/09/12 04:42:14;;;;;;;20.73;12.20;;;;;;;21.75;47.25;99779.81;4161346;28;20267;-64
2022/09/12 04:44:16;;;;;;;14.30;11.77;;;;;;;21.27;47.73;99805.84;4158215;28;20252;-63
2022/09/12 04:46:19;;;;;;;14.60;12.10;;;;;;;21.08;48.31;99810.47;4158239;28;20233;-63
2022/09/12 04:48:20;;;;;;;14.50;12.57;;;;;;;20.11;49.83;99846.09;4159297;28;20977;-64
2022/09/12 04:50:22;;;;;;;15.40;12.97;;;;;;;20.13;50.17;99829.66;4163876;28;20618;-64
2022/09/12 04:52:24;;;;;;;15.77;13.00;;;;;;;19.98;50.43;99832.72;4160674;28;20237;-63
2022/09/12 04:54:25;;;;;;;16.90;14.03;;;;;;;19.97;50.60;99821.06;4157666;28;20229;-64
2022/09/12 04:56:28;;;;;;;15.53;13.80;;;;;;;20.25;49.87;99807.13;4157988;28;20232;-64
2022/09/12 04:58:30;;;;;;;17.63;14.63;;;;;;;20.78;48.91;99770.66;4160055;28;20644;-64
2022/09/12 05:00:32;;;;;;;16.07;14.37;;;;;;;20.36;49.92;99802.91;4164679;28;20237;-64
2022/09/12 05:02:33;;;;;;;17.23;14.77;;;;;;;20.37;50.15;99780.25;4158005;28;20727;-64
2022/09/12 05:04:35;;;;;;;19.27;14.50;;;;;;;20.68;49.38;99785.75;4159092;28;20252;-64
2022/09/12 05:06:39;;;;;;;15.90;14.00;;;;;;;19.97;50.44;99815.66;4158685;28;20572;-64
2022/09/12 05:08:40;;;;;;;19.77;14.23;;;;;;;20.36;49.90;99783.19;4159731;28;20312;-64
2022/09/12 05:10:42;;;;;;;16.03;14.33;;;;;;;19.81;50.90;99811.66;4160244;28;20295;-64
2022/09/12 05:12:44;;;;;;;20.33;13.97;;;;;;;20.21;50.32;99784.34;4154347;28;20700;-64
2022/09/12 05:14:45;;;;;;;19.30;14.83;;;;;;;19.90;51.02;99800.59;4161753;28;20231;-64
2022/09/12 05:16:47;;;;;;;19.93;15.40;;;;;;;19.58;52.49;99774.44;4159176;28;20269;-64
2022/09/12 05:18:50;;;;;;;19.50;15.83;;;;;;;19.81;51.74;99779.28;4160465;28;20285;-63
2022/09/12 05:20:53;;;;;;;23.13;16.37;;;;;;;20.29;50.59;99764.34;4153218;28;20753;-64
2022/09/12 05:22:54;;;;;;;20.00;16.13;;;;;;;21.01;49.46;99736.75;4161017;28;20697;-64
2022/09/12 05:24:56;;;;;;;17.73;15.73;;;;;;;21.14;49.32;99743.84;4160110;28;20209;-64
2022/09/12 05:26:58;;;;;;;18.67;16.10;;;;;;;20.94;49.51;99753.00;4159786;28;20218;-64
2022/09/12 05:28:59;;;;;;;18.97;15.70;;;;;;;21.29;49.02;99735.31;4160173;28;20622;-64
2022/09/12 05:31:14;;;;;;;18.90;16.27;;;;;;;20.90;49.47;99789.63;4157659;28;20277;-64
2022/09/12 05:33:16;;;;;;;18.93;16.13;;;;;;;21.13;49.24;99770.03;4157525;28;20237;-64
2022/09/12 05:35:19;;;;;;;25.43;17.07;;;;;;;21.55;48.71;99734.09;4155691;28;20240;-64
2022/09/12 05:37:22;;;;;;;17.60;15.67;;;;;;;21.19;49.17;99773.72;4159158;28;20240;-64
2022/09/12 05:39:24;;;;;;;20.43;15.20;;;;;;;21.69;48.20;99761.78;4160714;28;20515;-64
2022/09/12 05:41:29;;;;;;;19.40;15.67;;;;;;;21.84;48.13;99758.63;4160818;28;20246;-64
2022/09/12 05:43:32;;;;;;;20.27;15.37;;;;;;;21.94;47.73;99768.91;4161003;28;20298;-64
2022/09/12 05:45:34;;;;;;;20.13;15.63;;;;;;;21.95;47.68;99763.25;4159146;28;20748;-64
2022/09/12 05:47:36;;;;;;;20.20;15.10;;;;;;;22.17;47.66;99749.09;4158398;28;20251;-63
2022/09/12 05:49:37;;;;;;;17.40;14.83;;;;;;;22.12;47.61;99773.38;4157022;28;20865;-64
2022/09/12 05:51:42;;;;;;;18.77;15.07;;;;;;;21.75;48.02;99814.16;4155060;28;20252;-64
2022/09/12 05:54:04;;;;;;;17.20;15.07;;;;;;;22.29;47.43;99766.22;4156801;28;20275;-64
2022/09/12 05:56:14;;;;;;;19.53;15.40;;;;;;;22.45;47.14;99764.66;4154678;28;20232;-63
2022/09/12 05:58:16;;;;;;;18.37;14.57;;;;;;;22.32;47.44;99775.75;4160026;28;20312;-63
2022/09/12 06:00:19;;;;;;;19.23;14.40;;;;;;;22.30;47.29;99786.00;4155863;28;20266;-63
2022/09/12 06:02:21;;;;;;;16.17;14.47;;;;;;;22.24;47.57;99785.84;4160646;28;20237;-63
2022/09/12 06:04:22;;;;;;;18.53;14.13;;;;;;;22.06;48.12;99800.31;4155424;28;20235;-63
2022/09/12 06:06:24;;;;;;;20.80;15.20;;;;;;;21.83;48.63;99797.56;4157195;28;20812;-65
2022/09/12 06:08:25;;;;;;;21.57;16.60;;;;;;;21.74;49.08;99797.09;4159209;28;20231;-63
2022/09/12 06:10:27;;;;;;;17.93;15.20;;;;;;;22.32;47.90;99768.47;4158205;28;20236;-63
2022/09/12 06:12:29;;;;;;;17.63;14.47;;;;;;;21.96;48.47;99805.50;4158684;28;20320;-63
2022/09/12 06:14:31;;;;;;;20.23;15.27;;;;;;;21.50;49.52;99812.41;4162360;28;20582;-63
2022/09/12 06:16:34;;;;;;;24.20;16.03;;;;;;;21.11;49.97;99849.75;4158565;28;20239;-65
2022/09/12 06:18:37;;;;;;;17.80;15.50;;;;;;;21.92;48.68;99786.19;4159961;28;20226;-63
2022/09/12 06:20:39;;;;;;;16.97;15.17;;;;;;;21.86;48.37;99807.94;4158468;28;20443;-63
2022/09/12 06:22:41;;;;;;;18.53;15.53;;;;;;;22.17;48.26;99779.75;4155117;28;20236;-62
2022/09/12 06:24:43;;;;;;;16.53;14.63;;;;;;;22.00;48.86;99795.84;4154852;28;20260;-63
2022/09/12 06:26:46;;;;;;;20.17;14.40;;;;;;;21.96;49.14;99780.31;4154280;28;20332;-63
2022/09/12 06:28:48;;;;;;;18.93;14.10;;;;;;;21.79;49.14;99820.75;4156030;28;20701;-63
2022/09/12 06:30:50;;;;;;;18.43;14.93;;;;;;;22.32;49.13;99738.69;4145160;28;20316;-64
2022/09/12 06:32:52;;;;;;;16.53;14.10;;;;;;;22.95;47.50;99706.38;4155991;28;20237;-63
2022/09/12 06:34:54;;;;;;;15.37;13.53;;;;;;;22.89;47.75;99726.28;4162125;28;20726;-63
2022/09/12 06:36:56;;;;;;;18.10;13.80;;;;;;;22.84;47.72;99741.38;4162473;28;20311;-63
2022/09/12 06:39:04;;;;;;;15.97;13.43;;;;;;;23.06;47.66;99727.16;4159541;28;20204;-65
2022/09/12 06:41:09;;;;;;;16.17;13.63;;;;;;;22.08;49.13;99808.22;4159319;28;20666;-63
2022/09/12 06:43:12;;;;;;;16.97;14.53;;;;;;;22.89;48.00;99735.22;4160258;28;20237;-64
2022/09/12 06:45:15;;;;;;;16.87;13.97;;;;;;;22.46;48.44;99766.34;4154151;28;20236;-64
2022/09/12 06:47:16;;;;;;;16.87;14.87;;;;;;;21.99;49.67;99810.44;4158570;28;20352;-64
2022/09/12 06:49:18;;;;;;;16.70;14.77;;;;;;;23.32;47.02;99724.94;4157652;28;20695;-64
2022/09/12 06:51:20;;;;;;;18.60;15.20;;;;;;;22.95;47.97;99757.88;4155803;28;20682;-64
2022/09/12 06:53:22;;;;;;;17.03;14.23;;;;;;;23.59;46.68;99719.72;4159304;28;20236;-64
2022/09/12 06:55:23;;;;;;;17.00;13.63;;;;;;;23.24;47.33;99761.41;4159777;28;20727;-63
2022/09/12 06:57:30;;;;;;;16.00;13.27;;;;;;;23.74;46.55;99732.72;4161767;28;20625;-64
2022/09/12 06:59:31;;;;;;;16.23;14.53;;;;;;;23.27;47.23;99782.63;4156212;28;20236;-64
2022/09/12 07:01:33;;;;;;;17.20;13.93;;;;;;;23.89;46.23;99738.41;4159440;28;20228;-64
2022/09/12 07:03:36;;;;;;;15.57;13.97;;;;;;;23.48;46.60;99799.28;4153256;28;20767;-64
2022/09/12 07:05:37;;;;;;;15.63;13.83;;;;;;;23.56;47.10;99769.06;4158719;28;20286;-63
2022/09/12 07:07:39;;;;;;;15.93;13.20;;;;;;;23.62;47.19;99768.09;4154321;28;20240;-64
2022/09/12 07:09:40;;;;;;;16.03;13.53;;;;;;;23.09;48.07;99794.47;4157219;28;20240;-64
2022/09/12 07:11:43;;;;;;;15.77;13.13;;;;;;;23.18;48.23;99770.50;4154897;28;20232;-64
2022/09/12 07:13:47;;;;;;;14.77;13.13;;;;;;;22.69;48.53;99835.91;4155778;28;20315;-64
2022/09/12 07:15:50;;;;;;;15.27;12.40;;;;;;;23.07;48.05;99787.66;4157599;28;20235;-64
2022/09/12 07:17:52;;;;;;;13.97;12.33;;;;;;;23.59;47.50;99749.59;4157005;28;20239;-64
2022/09/12 07:19:53;;;;;;;15.67;13.03;;;;;;;23.33;47.51;99770.81;4158896;28;20225;-64
2022/09/12 07:21:55;;;;;;;15.33;12.83;;;;;;;23.49;47.60;99755.63;4164475;28;20236;-64
2022/09/12 07:23:59;;;;;;;15.17;12.77;;;;;;;23.31;47.64;99778.34;4162054;28;20268;-64
2022/09/12 07:26:01;;;;;;;15.57;12.80;;;;;;;23.82;46.97;99724.16;4160344;28;20328;-64
2022/09/12 07:28:02;;;;;;;14.37;12.87;;;;;;;23.80;47.07;99747.19;4158099;28;20228;-64
2022/09/12 07:30:06;;;;;;;13.97;12.57;;;;;;;22.73;49.02;99820.03;4159690;28;20335;-64
2022/09/12 07:32:08;;;;;;;15.47;13.00;;;;;;;23.57;47.77;99743.59;4159224;28;20261;-64
2022/09/12 07:34:10;;;;;;;13.90;12.43;;;;;;;23.75;47.10;99734.38;4159475;28;20640;-64
2022/09/12 07:36:15;;;;;;;13.67;11.57;;;;;;;23.63;47.46;99758.88;4158881;28;20808;-64
2022/09/12 07:38:16;;;;;;;12.67;11.33;;;;;;;23.95;47.11;99729.25;4160449;28;20737;-64
2022/09/12 07:40:18;;;;;;;14.93;11.90;;;;;;;23.39;48.16;99798.84;4160851;28;20234;-64
2022/09/12 07:42:19;;;;;;;13.33;11.97;;;;;;;23.33;48.69;99783.53;4160618;28;20736;-64
2022/09/12 07:44:21;;;;;;;13.33;11.50;;;;;;;22.78;49.11;99826.38;4164438;28;20225;-65
2022/09/12 07:46:24;;;;;;;15.73;11.70;;;;;;;23.41;47.92;99791.28;4160778;28;20316;-64
2022/09/12 07:48:27;;;;;;;14.70;11.10;;;;;;;22.71;49.03;99838.38;4159776;28;20268;-64
2022/09/12 07:50:28;;;;;;;12.70;10.43;;;;;;;23.82;47.73;99724.16;4159042;28;20232;-64
2022/09/12 07:52:30;;;;;;;12.27;10.97;;;;;;;23.70;47.84;99743.25;4163743;28;20268;-64
2022/09/12 07:54:32;;;;;;;13.03;11.00;;;;;;;23.88;47.17;99749.50;4161999;28;20788;-64
2022/09/12 07:56:33;;;;;;;12.27;10.10;;;;;;;23.84;47.25;99765.47;4162143;28;20639;-64
2022/09/12 07:58:41;;;;;;;16.83;11.43;;;;;;;23.59;47.74;99782.16;4161334;28;20699;-64
2022/09/12 08:00:44;;;;;;;13.50;11.40;;;;;;;23.89;47.08;99771.00;4162886;28;20252;-64
2022/09/12 08:02:53;;;;;;;13.00;10.20;;;;;;;24.30;47.29;99721.91;4151279;28;20237;-65
2022/09/12 08:04:54;;;;;;;11.30;10.03;;;;;;;23.64;48.02;99797.72;4157843;28;20238;-65
2022/09/12 08:06:56;;;;;;;11.50;10.30;;;;;;;23.24;48.85;99785.81;4165455;28;20300;-64
2022/09/12 08:08:58;;;;;;;11.57;9.80;;;;;;;24.03;47.50;99735.34;4159739;28;20432;-65
2022/09/12 08:11:02;;;;;;;11.17;9.13;;;;;;;23.66;47.87;99782.81;4164892;28;20275;-65
2022/09/12 08:13:07;;;;;;;11.37;9.53;;;;;;;22.58;49.74;99824.03;4160661;28;20240;-62
2022/09/12 08:15:11;;;;;;;11.10;8.20;;;;;;;23.65;48.15;99766.78;4162682;28;20235;-64
2022/09/12 08:17:13;;;;;;;9.47;8.47;;;;;;;24.60;46.08;99718.75;4164608;28;20240;-64
2022/09/12 08:19:14;;;;;;;9.23;7.90;;;;;;;24.31;46.57;99745.25;4156630;28;20270;-64
2022/09/12 08:21:19;;;;;;;10.60;8.83;;;;;;;24.79;46.42;99724.72;4160222;28;20267;-64
2022/09/12 08:23:22;;;;;;;11.43;8.97;;;;;;;23.83;47.96;99782.81;4159986;28;20327;-64
2022/09/12 08:25:24;;;;;;;9.67;8.57;;;;;;;24.21;47.03;99783.16;4159497;28;20286;-64
2022/09/12 08:27:26;;;;;;;9.27;8.27;;;;;;;24.52;47.06;99757.25;4158483;28;20228;-64
2022/09/12 08:29:27;;;;;;;9.30;8.27;;;;;;;25.16;45.65;99712.34;4159164;28;20232;-64
2022/09/12 08:31:35;;;;;;;9.80;8.77;;;;;;;23.85;47.58;99815.16;4157791;28;20240;-64
2022/09/12 08:33:37;;;;;;;8.87;7.97;;;;;;;23.95;47.25;99804.47;4161809;28;20243;-64
2022/09/12 08:35:38;;;;;;;9.20;8.07;;;;;;;24.57;46.64;99751.06;4161914;28;20751;-64
2022/09/12 08:37:40;;;;;;;10.40;8.53;;;;;;;24.23;47.42;99778.31;4160829;28;20611;-64
2022/09/12 08:39:42;;;;;;;8.43;7.53;;;;;;;24.47;47.03;99763.44;4160233;28;20323;-64
2022/09/12 08:41:46;;;;;;;9.60;7.53;;;;;;;24.30;46.82;99796.06;4160286;28;20237;-64
2022/09/12 08:44:10;;;;;;;10.07;7.67;;;;;;;25.04;46.35;99758.72;4160894;28;20240;-64
2022/09/12 08:46:22;;;;;;;8.53;7.37;;;;;;;24.45;46.83;99784.59;4157542;28;20238;-64
2022/09/12 08:48:24;;;;;;;10.47;7.70;;;;;;;24.95;45.73;99744.75;4160693;28;20236;-63
2022/09/12 08:50:26;;;;;;;10.00;6.93;;;;;;;25.24;45.70;99731.72;4157698;28;20234;-64
2022/09/12 08:52:39;;;;;;;8.83;7.53;;;;;;;24.89;46.94;99775.69;4155297;28;20270;-63
2022/09/12 08:54:44;;;;;;;9.93;7.87;;;;;;;24.59;47.10;99795.94;4161506;28;20242;-64
2022/09/12 08:56:47;;;;;;;8.73;7.03;;;;;;;24.76;46.50;99762.44;4157853;28;20256;-64
2022/09/12 08:58:48;;;;;;;8.57;7.33;;;;;;;24.68;47.08;99755.53;4159308;28;20307;-64
2022/09/12 09:01:15;;;;;;;8.20;7.27;;;;;;;24.86;46.78;99746.28;4157620;28;20232;-64
2022/09/12 09:03:32;;;;;;;7.80;6.97;;;;;;;25.61;45.71;99702.97;4156557;28;20236;-64
2022/09/12 09:05:50;;;;;;;7.77;6.97;;;;;;;25.41;45.25;99725.38;4158966;28;20311;-64
2022/09/12 09:08:02;;;;;;;8.83;7.33;;;;;;;25.85;44.51;99708.03;4156933;28;20312;-64
2022/09/12 09:10:22;;;;;;;7.67;6.50;;;;;;;25.08;45.31;99788.97;4152512;28;20236;-64
2022/09/12 09:12:47;;;;;;;7.80;6.63;;;;;;;25.15;46.05;99748.75;4158853;28;20238;-64
2022/09/12 09:15:02;;;;;;;7.93;6.90;;;;;;;25.63;44.91;99757.13;4160053;28;20319;-63
2022/09/12 09:17:09;;;;;;;8.77;5.90;;;;;;;25.35;45.26;99780.81;4155401;28;20244;-64
2022/09/12 09:19:33;;;;;;;7.17;6.20;;;;;;;25.63;44.52;99747.06;4162280;28;20258;-64
2022/09/12 09:21:50;;;;;;;7.10;6.20;;;;;;;26.28;43.20;99736.91;4158024;28;20231;-64
2022/09/12 09:24:09;;;;;;;7.10;6.23;;;;;;;26.48;43.13;99708.13;4160500;28;20229;-64
2022/09/12 09:26:26;;;;;;;8.00;6.33;;;;;;;26.82;43.17;99724.91;4155912;28;20221;-64
2022/09/12 09:28:53;;;;;;;8.13;6.87;;;;;;;26.20;44.39;99758.41;4160746;28;20311;-64
2022/09/12 09:30:56;;;;;;;6.93;6.23;;;;;;;25.73;45.25;99788.00;4152895;28;20228;-64
2022/09/12 09:33:01;;;;;;;7.57;6.73;;;;;;;26.36;44.19;99738.34;4158558;28;20220;-64
2022/09/12 09:35:14;;;;;;;9.43;6.70;;;;;;;27.14;43.49;99702.09;4156225;28;20680;-64
2022/09/12 09:37:28;;;;;;;7.37;6.60;;;;;;;26.86;43.84;99739.66;4160139;28;20270;-64
2022/09/12 09:39:49;;;;;;;8.33;6.53;;;;;;;26.07;45.10;99793.19;4158923;28;20580;-64
2022/09/12 09:42:16;;;;;;;7.23;6.53;;;;;;;26.68;44.26;99749.13;4160264;28;20302;-64
2022/09/12 09:44:18;;;;;;;10.17;6.50;;;;;;;27.35;43.22;99711.13;4155962;28;20237;-64
2022/09/12 09:46:19;;;;;;;8.03;6.33;;;;;;;27.30;43.34;99719.31;4160287;28;20320;-64
2022/09/12 09:48:34;;;;;;;8.30;6.73;;;;;;;25.95;44.81;99800.75;4159242;28;20331;-65